createdAt,value
2019-03-12T00:01:35.200Z,7.20
2019-03-12T00:03:43.715Z,7.30
2019-03-12T00:04:48.091Z,7.30
2019-03-12T00:05:52.481Z,7.30
2019-03-12T00:11:14.567Z,7.30
2019-03-12T00:15:30.765Z,7.20
2019-03-12T00:18:43.381Z,7.10
2019-03-12T00:22:58.521Z,7.30
2019-03-12T00:24:03.239Z,7.20
2019-03-12T00:26:11.415Z,7.10
2019-03-12T00:30:27.573Z,7.10
2019-03-12T00:31:32.969Z,7.20
2019-03-12T00:33:40.951Z,7.00
2019-03-12T00:35:48.964Z,7.30
2019-03-12T00:37:56.952Z,7.10
2019-03-12T00:40:06.863Z,7.00
2019-03-12T00:41:11.302Z,7.10
2019-03-12T00:42:15.680Z,6.90
2019-03-12T00:44:25.221Z,7.10
2019-03-12T00:45:29.644Z,7.10
2019-03-12T00:46:34.144Z,6.90
2019-03-12T00:48:42.085Z,7.30
2019-03-12T00:55:05.897Z,7.10
2019-03-12T00:59:22.355Z,6.90
2019-03-12T01:00:26.736Z,7.00
2019-03-12T01:02:35.598Z,7.20
2019-03-12T01:03:40.667Z,7.10
2019-03-12T01:11:08.095Z,7.00
2019-03-12T01:12:12.518Z,7.20
2019-03-12T01:13:17.608Z,7.30
2019-03-12T01:15:25.647Z,7.10
2019-03-12T01:19:41.645Z,7.10
2019-03-12T01:23:56.865Z,6.90
2019-03-12T01:27:08.479Z,7.00
2019-03-12T01:29:16.510Z,7.20
2019-03-12T01:31:24.501Z,7.10
2019-03-12T01:34:37.021Z,7.10
2019-03-12T01:38:52.203Z,6.90
2019-03-12T01:49:35.647Z,7.00
2019-03-12T01:51:43.624Z,7.00
2019-03-12T01:54:56.200Z,7.10
2019-03-12T01:56:00.637Z,7.00
2019-03-12T01:59:13.345Z,7.00
2019-03-12T02:00:18.726Z,6.90
2019-03-12T02:02:26.725Z,7.00
2019-03-12T02:04:34.706Z,6.80
2019-03-12T02:05:39.639Z,6.90
2019-03-12T02:07:48.601Z,7.00
2019-03-12T02:09:56.579Z,6.90
2019-03-12T02:11:01.016Z,7.00
2019-03-12T02:12:05.424Z,6.90
2019-03-12T02:13:09.819Z,7.10
2019-03-12T02:14:22.433Z,7.20
2019-03-12T02:15:26.796Z,7.10
2019-03-12T02:16:31.268Z,7.10
2019-03-12T02:21:51.227Z,6.90
2019-03-12T02:22:55.662Z,7.00
2019-03-12T02:24:00.119Z,6.90
2019-03-12T02:25:07.574Z,7.10
2019-03-12T02:28:20.199Z,6.90
2019-03-12T02:29:24.875Z,6.90
2019-03-12T02:34:43.755Z,6.80
2019-03-12T02:36:52.432Z,6.80
2019-03-12T02:39:00.650Z,6.80
2019-03-12T02:40:08.640Z,6.90
2019-03-12T02:42:16.783Z,6.90
2019-03-12T02:44:25.011Z,6.80
2019-03-12T02:46:33.285Z,6.70
2019-03-12T02:47:38.716Z,6.80
2019-03-12T02:48:43.083Z,6.80
2019-03-12T02:50:52.022Z,6.70
2019-03-12T02:54:03.640Z,6.60
2019-03-12T02:56:12.607Z,6.80
2019-03-12T02:57:17.084Z,6.80
2019-03-12T03:00:28.912Z,6.70
2019-03-12T03:01:33.280Z,6.80
2019-03-12T03:04:44.872Z,6.90
2019-03-12T03:09:00.360Z,6.80
2019-03-12T03:11:11.819Z,6.90
2019-03-12T03:12:16.252Z,6.50
2019-03-12T03:13:20.897Z,6.70
2019-03-12T03:15:35.089Z,6.80
2019-03-12T03:17:43.872Z,6.70
2019-03-12T03:18:48.333Z,6.60
2019-03-12T03:22:01.126Z,6.70
2019-03-12T03:23:06.630Z,6.70
2019-03-12T03:26:19.206Z,6.70
2019-03-12T03:27:23.843Z,6.70
2019-03-12T03:29:32.120Z,6.70
2019-03-12T03:31:40.602Z,6.50
2019-03-12T03:32:45.261Z,6.60
2019-03-12T03:33:49.962Z,6.80
2019-03-12T03:37:02.419Z,6.80
2019-03-12T03:38:07.057Z,6.80
2019-03-12T03:40:19.701Z,6.60
2019-03-12T03:41:24.409Z,6.70
2019-03-12T03:43:32.421Z,6.70
2019-03-12T03:47:48.761Z,6.70
2019-03-12T03:53:07.807Z,6.80
2019-03-12T03:54:12.208Z,6.60
2019-03-12T03:57:26.507Z,6.70
2019-03-12T03:59:35.799Z,6.60
2019-03-12T04:00:40.200Z,6.70
2019-03-12T04:01:44.599Z,6.60
2019-03-12T04:02:49.018Z,6.60
2019-03-12T04:06:00.671Z,6.70
2019-03-12T04:07:05.052Z,6.90
2019-03-12T04:10:17.946Z,7.00
2019-03-12T04:11:22.657Z,6.90
2019-03-12T04:13:30.622Z,6.70
2019-03-12T04:17:45.944Z,6.80
2019-03-12T04:19:53.929Z,6.70
2019-03-12T04:20:59.612Z,6.80
2019-03-12T04:22:03.965Z,6.90
2019-03-12T04:23:08.350Z,6.80
2019-03-12T04:25:16.395Z,6.90
2019-03-12T04:26:20.969Z,6.80
2019-03-12T04:27:25.427Z,6.80
2019-03-12T04:30:37.260Z,7.00
2019-03-12T04:32:45.345Z,6.90
2019-03-12T04:34:12.252Z,6.70
2019-03-12T04:35:28.502Z,6.90
2019-03-12T04:36:33.107Z,6.90
2019-03-12T04:38:41.161Z,7.00
2019-03-12T04:39:45.541Z,6.80
2019-03-12T04:40:49.908Z,6.90
2019-03-12T04:41:54.525Z,6.90
2019-03-12T04:42:59.006Z,6.70
2019-03-12T04:44:03.408Z,6.70
2019-03-12T04:45:11.701Z,6.90
2019-03-12T04:48:23.521Z,6.80
2019-03-12T04:49:27.910Z,6.80
2019-03-12T04:52:44.362Z,7.00
2019-03-12T04:53:49.059Z,6.90
2019-03-12T04:57:01.758Z,6.90
2019-03-12T05:01:19.992Z,7.00
2019-03-12T05:04:31.521Z,7.00
2019-03-12T05:05:36.019Z,7.00
2019-03-12T05:06:40.441Z,6.90
2019-03-12T05:07:44.809Z,7.00
2019-03-12T05:08:49.244Z,6.80
2019-03-12T05:09:54.767Z,6.90
2019-03-12T05:10:59.179Z,6.80
2019-03-12T05:12:03.685Z,6.80
2019-03-12T05:13:08.314Z,6.80
2019-03-12T05:14:19.983Z,6.70
2019-03-12T05:15:24.365Z,7.00
2019-03-12T05:16:28.707Z,6.90
2019-03-12T05:18:37.431Z,6.90
2019-03-12T05:19:41.813Z,6.90
2019-03-12T05:22:54.061Z,6.90
2019-03-12T05:23:58.423Z,7.00
2019-03-12T05:30:25.172Z,6.80
2019-03-12T05:31:29.615Z,7.00
2019-03-12T05:33:37.617Z,7.00
2019-03-12T05:35:45.575Z,7.00
2019-03-12T05:37:54.227Z,7.00
2019-03-12T05:38:58.643Z,7.00
2019-03-12T05:41:08.435Z,7.00
2019-03-12T05:42:12.877Z,7.30
2019-03-12T05:45:25.519Z,7.10
2019-03-12T05:48:37.097Z,7.10
2019-03-12T05:49:41.516Z,6.90
2019-03-12T05:51:49.485Z,7.10
2019-03-12T05:53:00.967Z,7.20
2019-03-12T05:55:10.739Z,7.10
2019-03-12T05:56:15.127Z,7.10
2019-03-12T05:58:23.098Z,7.20
2019-03-12T05:59:27.600Z,7.00
2019-03-12T06:01:35.736Z,7.10
2019-03-12T06:02:40.159Z,7.10
2019-03-12T06:03:44.567Z,7.10
2019-03-12T06:04:49.430Z,7.20
2019-03-12T06:06:57.597Z,7.30
2019-03-12T06:09:06.182Z,7.30
2019-03-12T06:10:13.815Z,7.10
2019-03-12T06:11:18.172Z,7.00
2019-03-12T06:12:22.593Z,7.30
2019-03-12T06:20:52.253Z,7.10
2019-03-12T06:25:07.727Z,7.10
2019-03-12T06:27:18.189Z,7.30
2019-03-12T06:30:29.501Z,7.40
2019-03-12T06:31:33.886Z,7.20
2019-03-12T06:36:52.643Z,7.00
2019-03-12T06:37:57.033Z,7.10
2019-03-12T06:41:10.541Z,7.20
2019-03-12T06:43:18.561Z,7.30
2019-03-12T06:44:23.224Z,7.30
2019-03-12T06:45:27.638Z,7.20
2019-03-12T06:46:32.006Z,7.40
2019-03-12T06:48:40.341Z,7.40
2019-03-12T06:49:44.754Z,7.50
2019-03-12T06:50:49.178Z,7.40
2019-03-12T06:51:53.573Z,7.40
2019-03-12T06:55:06.151Z,7.60
2019-03-12T06:58:17.746Z,7.40
2019-03-12T07:01:29.656Z,7.50
2019-03-12T07:02:34.031Z,7.50
2019-03-12T07:04:42.289Z,7.30
2019-03-12T07:06:50.289Z,7.60
2019-03-12T07:10:01.887Z,7.40
2019-03-12T07:14:18.116Z,7.50
2019-03-12T07:15:22.509Z,7.50
2019-03-12T07:18:34.084Z,7.50
2019-03-12T07:19:38.474Z,7.50
2019-03-12T07:22:50.048Z,7.50
2019-03-12T07:24:58.085Z,7.50
2019-03-12T07:26:02.455Z,7.30
2019-03-12T07:27:06.837Z,7.60
2019-03-12T07:29:14.908Z,7.50
2019-03-12T07:31:22.945Z,7.50
2019-03-12T07:32:27.629Z,7.60
2019-03-12T07:36:43.783Z,7.50
2019-03-12T07:37:49.365Z,7.60
2019-03-12T07:41:00.946Z,7.90
2019-03-12T07:42:05.367Z,7.80
2019-03-12T07:45:18.226Z,7.90
2019-03-12T07:47:35.580Z,7.80
2019-03-12T07:48:33.663Z,7.80
2019-03-12T07:54:57.042Z,7.90
2019-03-12T07:56:01.441Z,8.20
2019-03-12T07:59:13.068Z,8.20
2019-03-12T08:01:21.235Z,7.90
2019-03-12T08:03:29.147Z,8.00
2019-03-12T08:04:33.507Z,7.90
2019-03-12T08:07:45.083Z,8.00
2019-03-12T08:10:56.677Z,8.20
2019-03-12T08:15:22.913Z,8.30
2019-03-12T08:18:28.211Z,8.40
2019-03-12T08:20:36.167Z,8.50
2019-03-12T08:22:44.163Z,8.60
2019-03-12T08:25:56.509Z,8.60
2019-03-12T08:27:00.885Z,8.60
2019-03-12T08:36:38.055Z,9.20
2019-03-12T08:37:42.404Z,9.20
2019-03-12T08:38:46.969Z,9.30
2019-03-12T08:39:51.320Z,9.30
2019-03-12T08:42:00.210Z,9.30
2019-03-12T08:46:18.295Z,9.40
2019-03-12T08:47:22.717Z,9.40
2019-03-12T08:48:27.081Z,9.40
2019-03-12T08:52:42.756Z,9.30
2019-03-12T08:53:47.177Z,9.30
2019-03-12T08:55:55.282Z,9.40
2019-03-12T08:57:00.957Z,9.40
2019-03-12T08:59:08.928Z,9.40
2019-03-12T09:00:13.316Z,9.40
2019-03-12T09:01:17.725Z,9.40
2019-03-12T09:06:37.120Z,9.40
2019-03-12T09:08:45.113Z,9.40
2019-03-12T09:10:53.109Z,9.30
2019-03-12T09:11:58.121Z,9.40
2019-03-12T09:13:02.471Z,9.50
2019-03-12T09:15:11.571Z,9.40
2019-03-12T09:16:16.265Z,9.70
2019-03-12T09:18:24.427Z,9.50
2019-03-12T09:19:28.796Z,9.50
2019-03-12T09:23:43.959Z,9.90
2019-03-12T09:24:48.348Z,9.90
2019-03-12T09:27:59.940Z,10.10
2019-03-12T09:29:05.172Z,10.30
2019-03-12T09:33:21.736Z,10.40
2019-03-12T09:37:36.965Z,10.20
2019-03-12T09:39:45.012Z,10.10
2019-03-12T09:40:49.406Z,10.20
2019-03-12T09:42:57.429Z,10.10
2019-03-12T09:45:08.103Z,10.00
2019-03-12T09:47:16.085Z,10.00
2019-03-12T09:49:24.039Z,10.20
2019-03-12T09:52:35.680Z,10.30
2019-03-12T09:53:40.088Z,10.50
2019-03-12T09:54:44.480Z,10.60
2019-03-12T09:55:48.871Z,10.60
2019-03-12T10:04:22.688Z,11.40
2019-03-12T10:05:27.551Z,11.50
2019-03-12T10:10:46.442Z,11.50
2019-03-12T10:11:51.362Z,11.50
2019-03-12T10:12:56.997Z,11.60
2019-03-12T10:16:10.261Z,11.90
2019-03-12T10:19:22.111Z,12.10
2019-03-12T10:20:26.503Z,12.10
2019-03-12T10:21:30.893Z,12.10
2019-03-12T10:23:40.859Z,12.00
2019-03-12T10:24:46.753Z,12.00
2019-03-12T10:27:58.284Z,11.90
2019-03-12T10:30:09.481Z,11.70
2019-03-12T10:31:13.914Z,11.70
2019-03-12T10:32:18.302Z,11.70
2019-03-12T10:34:29.861Z,11.70
2019-03-12T10:37:40.912Z,11.70
2019-03-12T10:38:56.447Z,11.80
2019-03-12T10:40:01.966Z,11.80
2019-03-12T10:41:07.320Z,11.80
2019-03-12T10:42:11.723Z,11.90
2019-03-12T10:44:19.711Z,12.10
2019-03-12T10:46:28.743Z,12.20
2019-03-12T10:48:36.838Z,12.20
2019-03-12T10:51:48.477Z,12.30
2019-03-12T10:52:52.833Z,12.20
2019-03-12T10:56:04.457Z,12.30
2019-03-12T10:57:08.874Z,12.30
2019-03-12T10:59:16.899Z,12.40
2019-03-12T11:00:21.653Z,12.40
2019-03-12T11:01:26.038Z,12.40
2019-03-12T11:03:34.030Z,12.50
2019-03-12T11:04:38.376Z,12.40
2019-03-12T11:08:54.746Z,12.50
2019-03-12T11:10:00.193Z,12.60
2019-03-12T11:11:05.472Z,12.70
2019-03-12T11:17:30.007Z,13.10
2019-03-12T11:20:41.616Z,12.90
2019-03-12T11:24:57.747Z,12.90
2019-03-12T11:26:02.157Z,12.90
2019-03-12T11:27:06.555Z,12.90
2019-03-12T11:32:26.446Z,13.00
2019-03-12T11:34:34.440Z,13.00
2019-03-12T11:35:39.961Z,12.90
2019-03-12T11:37:48.236Z,13.00
2019-03-12T11:38:52.820Z,13.10
2019-03-12T11:39:57.229Z,13.20
2019-03-12T11:42:05.260Z,13.50
2019-03-12T11:43:09.899Z,13.50
2019-03-12T11:44:15.749Z,13.50
2019-03-12T11:45:31.073Z,13.50
2019-03-12T11:46:26.776Z,13.50
2019-03-12T11:48:34.821Z,13.60
2019-03-12T11:53:54.462Z,13.50
2019-03-12T11:54:59.088Z,13.60
2019-03-12T11:56:03.624Z,13.80
2019-03-12T11:58:11.965Z,13.80
2019-03-12T12:01:25.576Z,13.80
2019-03-12T12:02:30.048Z,13.90
2019-03-12T12:07:49.044Z,14.10
2019-03-12T12:12:04.510Z,14.40
2019-03-12T12:15:16.248Z,14.90
2019-03-12T12:16:20.909Z,15.10
2019-03-12T12:18:28.940Z,15.40
2019-03-12T12:19:33.331Z,15.50
2019-03-12T12:20:37.746Z,15.60
2019-03-12T12:21:42.151Z,15.60
2019-03-12T12:22:46.565Z,15.70
2019-03-12T12:27:01.805Z,15.60
2019-03-12T12:28:06.261Z,15.60
2019-03-12T12:30:20.247Z,15.60
2019-03-12T12:37:46.347Z,15.50
2019-03-12T12:38:50.762Z,15.50
2019-03-12T12:39:55.145Z,15.50
2019-03-12T12:40:59.580Z,15.50
2019-03-12T12:43:07.890Z,15.50
2019-03-12T12:44:12.297Z,15.40
2019-03-12T12:45:20.228Z,15.40
2019-03-12T12:47:28.249Z,15.30
2019-03-12T12:49:37.444Z,15.10
2019-03-12T12:51:45.471Z,14.80
2019-03-12T12:52:50.103Z,14.70
2019-03-12T12:53:54.545Z,14.60
2019-03-12T12:54:58.941Z,14.50
2019-03-12T12:56:03.439Z,14.50
2019-03-12T12:57:07.831Z,14.50
2019-03-12T12:59:15.854Z,14.60
2019-03-12T13:08:51.234Z,14.40
2019-03-12T13:14:10.113Z,14.30
2019-03-12T13:15:14.534Z,14.30
2019-03-12T13:18:27.139Z,14.10
2019-03-12T13:21:38.764Z,14.00
2019-03-12T13:24:50.394Z,14.00
2019-03-12T13:28:01.985Z,13.80
2019-03-12T13:31:21.009Z,13.80
2019-03-12T13:33:30.021Z,13.70
2019-03-12T13:34:34.405Z,13.70
2019-03-12T13:35:38.788Z,13.70
2019-03-12T13:42:02.683Z,13.90
2019-03-12T13:44:10.954Z,14.00
2019-03-12T13:45:20.817Z,13.80
2019-03-12T13:49:36.425Z,13.70
2019-03-12T13:50:41.082Z,13.60
2019-03-12T13:51:45.501Z,13.60
2019-03-12T13:56:00.965Z,13.80
2019-03-12T13:58:09.018Z,13.70
2019-03-12T13:59:13.485Z,13.70
2019-03-12T14:00:19.848Z,13.60
2019-03-12T14:02:27.847Z,13.60
2019-03-12T14:03:32.254Z,13.60
2019-03-12T14:04:36.648Z,13.60
2019-03-12T14:07:48.286Z,13.40
2019-03-12T14:08:52.689Z,13.40
2019-03-12T14:09:57.155Z,13.40
2019-03-12T14:16:29.485Z,13.10
2019-03-12T14:25:17.500Z,13.00
2019-03-12T14:26:21.914Z,13.00
2019-03-12T14:28:30.033Z,13.00
2019-03-12T14:29:34.414Z,12.90
2019-03-12T14:30:38.812Z,12.90
2019-03-12T14:32:46.808Z,12.80
2019-03-12T14:34:55.488Z,12.70
2019-03-12T14:36:00.195Z,12.70
2019-03-12T14:37:04.617Z,12.70
2019-03-12T14:41:22.247Z,12.70
2019-03-12T14:42:26.657Z,12.70
2019-03-12T14:43:31.031Z,12.70
2019-03-12T14:51:01.877Z,12.60
2019-03-12T14:53:21.856Z,12.60
2019-03-12T14:57:33.301Z,12.60
2019-03-12T14:58:37.692Z,12.60
2019-03-12T14:59:42.307Z,12.70
2019-03-12T15:01:50.273Z,12.60
2019-03-12T15:02:54.761Z,12.70
2019-03-12T15:03:59.878Z,12.70
2019-03-12T15:09:21.295Z,12.70
2019-03-12T15:10:26.031Z,12.60
2019-03-12T15:12:34.273Z,12.60
2019-03-12T15:16:50.005Z,12.10
2019-03-12T15:17:54.373Z,12.10
2019-03-12T15:18:58.755Z,12.10
2019-03-12T15:20:04.597Z,12.20
2019-03-12T15:22:13.640Z,12.00
2019-03-12T15:23:18.051Z,11.90
2019-03-12T15:24:22.454Z,11.90
2019-03-12T15:25:28.494Z,11.90
2019-03-12T15:32:03.152Z,11.80
2019-03-12T15:35:05.715Z,11.60
2019-03-12T15:41:28.334Z,11.30
2019-03-12T15:43:37.927Z,11.40
2019-03-12T15:44:42.625Z,11.40
2019-03-12T15:47:54.227Z,11.40
2019-03-12T15:48:58.642Z,11.40
2019-03-12T15:50:04.445Z,11.40
2019-03-12T15:52:12.457Z,11.40
2019-03-12T15:54:20.571Z,11.20
2019-03-12T15:56:30.657Z,11.30
2019-03-12T15:58:38.917Z,11.20
2019-03-12T15:59:43.307Z,11.20
2019-03-12T16:00:47.736Z,11.10
2019-03-12T16:01:52.107Z,11.10
2019-03-12T16:04:00.096Z,11.00
2019-03-12T16:05:06.531Z,11.00
2019-03-12T16:07:14.509Z,11.00
2019-03-12T16:09:22.488Z,10.90
2019-03-12T16:10:26.917Z,10.90
2019-03-12T16:13:38.596Z,10.90
2019-03-12T16:15:46.578Z,10.90
2019-03-12T16:16:50.976Z,10.90
2019-03-12T16:17:55.369Z,10.90
2019-03-12T16:20:06.400Z,11.00
2019-03-12T16:22:14.385Z,10.90
2019-03-12T16:24:22.379Z,10.90
2019-03-12T16:27:34.685Z,10.90
2019-03-12T16:28:39.093Z,10.90
2019-03-12T16:31:50.636Z,10.80
2019-03-12T16:33:58.579Z,10.80
2019-03-12T16:36:07.217Z,10.80
2019-03-12T16:37:11.934Z,10.80
2019-03-12T16:39:20.175Z,10.70
2019-03-12T16:41:28.261Z,10.70
2019-03-12T16:42:35.204Z,10.60
2019-03-12T16:44:44.603Z,10.50
2019-03-12T16:45:48.987Z,10.50
2019-03-12T16:47:56.985Z,10.50
2019-03-12T16:49:01.465Z,10.50
2019-03-12T16:51:13.675Z,10.40
2019-03-12T16:53:21.638Z,10.20
2019-03-12T16:56:44.573Z,10.30
2019-03-12T16:57:39.599Z,10.40
2019-03-12T16:59:47.593Z,10.40
2019-03-12T17:02:59.190Z,10.50
2019-03-12T17:04:04.157Z,10.60
2019-03-12T17:05:10.347Z,10.50
2019-03-12T17:07:18.367Z,10.50
2019-03-12T17:08:22.759Z,10.50
2019-03-12T17:09:27.176Z,10.50
2019-03-12T17:12:38.773Z,10.50
2019-03-12T17:16:54.015Z,10.40
2019-03-12T17:19:02.236Z,10.40
2019-03-12T17:20:11.105Z,10.40
2019-03-12T17:21:15.590Z,10.40
2019-03-12T17:24:30.170Z,10.30
2019-03-12T17:25:34.506Z,10.30
2019-03-12T17:29:49.925Z,10.30
2019-03-12T17:33:02.662Z,10.30
2019-03-12T17:34:08.112Z,10.40
2019-03-12T17:35:15.740Z,10.30
2019-03-12T17:36:20.249Z,10.30
2019-03-12T17:37:24.709Z,10.30
2019-03-12T17:38:41.689Z,10.30
2019-03-12T17:39:35.489Z,10.30
2019-03-12T17:41:43.469Z,10.30
2019-03-12T17:42:47.831Z,10.30
2019-03-12T17:43:52.229Z,10.30
2019-03-12T17:46:01.204Z,10.20
2019-03-12T17:49:13.008Z,10.20
2019-03-12T17:51:21.149Z,10.10
2019-03-12T17:52:25.504Z,10.10
2019-03-12T17:54:33.486Z,10.00
2019-03-12T17:55:37.841Z,9.90
2019-03-12T18:03:03.812Z,9.80
2019-03-12T18:06:16.168Z,9.80
2019-03-12T18:09:27.856Z,9.80
2019-03-12T18:12:39.466Z,9.80
2019-03-12T18:13:43.843Z,9.80
2019-03-12T18:16:55.688Z,9.80
2019-03-12T18:19:04.073Z,9.70
2019-03-12T18:21:14.775Z,9.70
2019-03-12T18:22:19.298Z,9.70
2019-03-12T18:26:41.103Z,9.60
2019-03-12T18:27:45.486Z,9.60
2019-03-12T18:30:57.899Z,9.60
2019-03-12T18:33:05.977Z,9.60
2019-03-12T18:34:10.359Z,9.50
2019-03-12T18:35:15.033Z,9.50
2019-03-12T18:36:20.459Z,9.40
2019-03-12T18:37:25.484Z,9.40
2019-03-12T18:38:29.874Z,9.50
2019-03-12T18:41:41.647Z,9.40
2019-03-12T18:45:57.183Z,9.40
2019-03-12T18:47:02.337Z,9.50
2019-03-12T18:49:10.423Z,9.50
2019-03-12T18:50:16.521Z,9.40
2019-03-12T18:52:24.752Z,9.40
2019-03-12T18:53:29.178Z,9.60
2019-03-12T18:58:52.955Z,9.30
2019-03-12T19:03:10.635Z,9.40
2019-03-12T19:09:49.339Z,9.70
2019-03-12T19:11:57.349Z,9.40
2019-03-12T19:15:11.899Z,9.30
2019-03-12T19:16:16.315Z,9.30
2019-03-12T19:18:26.272Z,9.30
2019-03-12T19:19:30.859Z,9.20
2019-03-12T19:22:42.383Z,9.40
2019-03-12T19:24:50.340Z,9.30
2019-03-12T19:26:58.574Z,9.30
2019-03-12T19:28:05.130Z,9.30
2019-03-12T19:29:09.829Z,9.60
2019-03-12T19:32:23.728Z,9.50
2019-03-12T19:34:31.803Z,9.10
2019-03-12T19:35:36.173Z,9.40
2019-03-12T19:37:44.161Z,9.40
2019-03-12T19:38:48.547Z,9.40
2019-03-12T19:39:53.002Z,9.20
2019-03-12T19:45:12.806Z,9.30
2019-03-12T19:46:17.959Z,9.40
2019-03-12T19:55:55.082Z,9.40
2019-03-12T19:56:59.518Z,9.30
2019-03-12T20:00:21.818Z,9.20
2019-03-12T20:01:28.163Z,9.10
2019-03-12T20:03:36.566Z,9.30
2019-03-12T20:04:47.064Z,9.10
2019-03-12T20:05:47.272Z,9.10
2019-03-12T20:08:58.921Z,9.10
2019-03-12T20:19:23.658Z,8.80
2019-03-12T20:27:53.436Z,8.80
2019-03-12T20:32:02.789Z,8.70
2019-03-12T20:33:13.067Z,8.60
2019-03-12T20:49:28.732Z,8.80
2019-03-12T20:59:21.262Z,8.60
2019-03-12T21:23:02.685Z,8.30
2019-03-12T21:26:56.721Z,8.40
2019-03-12T21:28:11.856Z,8.60
2019-03-12T21:29:33.944Z,8.40
2019-03-12T21:31:42.157Z,8.50
2019-03-12T21:40:14.396Z,8.60
2019-03-12T21:44:30.020Z,8.40
2019-03-12T21:49:49.239Z,8.20
2019-03-12T21:50:54.594Z,8.60
2019-03-12T21:51:58.984Z,8.50
2019-03-12T21:55:13.705Z,8.30
2019-03-12T21:56:18.083Z,8.50
2019-03-12T22:01:36.885Z,8.10
2019-03-12T22:02:41.988Z,8.50
2019-03-12T22:04:49.940Z,8.40
2019-03-12T22:05:54.336Z,8.40
2019-03-12T22:08:02.305Z,8.30
2019-03-12T22:12:19.481Z,8.20
2019-03-12T22:14:27.441Z,8.20
2019-03-12T22:19:46.247Z,8.00
2019-03-12T22:21:55.377Z,8.10
2019-03-12T22:22:59.788Z,8.10
2019-03-12T22:24:05.479Z,8.20
2019-03-12T22:26:15.867Z,8.00
2019-03-12T22:28:23.875Z,8.20
2019-03-12T22:29:28.288Z,8.10
2019-03-12T22:30:32.744Z,8.30
2019-03-12T22:31:37.211Z,8.30
2019-03-12T22:32:42.017Z,8.20
2019-03-12T22:33:46.331Z,8.30
2019-03-12T22:34:50.750Z,8.20
2019-03-12T22:35:55.161Z,8.20
2019-03-12T22:39:06.844Z,7.90
2019-03-12T22:41:17.711Z,8.00
2019-03-12T22:43:26.655Z,7.80
2019-03-12T22:44:31.442Z,8.10
2019-03-12T22:45:35.867Z,8.00
2019-03-12T22:49:51.237Z,8.30
2019-03-12T22:50:55.540Z,8.10
2019-03-12T22:52:00.943Z,8.20
2019-03-12T22:54:10.215Z,8.20
2019-03-12T22:55:14.595Z,8.20
2019-03-12T22:57:23.661Z,8.00
2019-03-12T22:59:42.632Z,8.20
2019-03-12T23:02:03.519Z,8.10
2019-03-12T23:03:13.440Z,8.10
2019-03-12T23:05:32.006Z,8.10
2019-03-12T23:07:50.533Z,8.00
2019-03-12T23:11:09.204Z,8.10
2019-03-12T23:13:19.237Z,8.10
2019-03-12T23:14:23.769Z,7.90
2019-03-12T23:15:28.276Z,8.10
2019-03-12T23:17:37.102Z,7.90
2019-03-12T23:18:41.744Z,8.10
2019-03-12T23:19:47.210Z,8.20
2019-03-12T23:20:51.664Z,8.20
2019-03-12T23:24:04.992Z,8.20
2019-03-12T23:25:09.596Z,8.20
2019-03-12T23:26:15.645Z,8.20
2019-03-12T23:28:24.462Z,8.10
2019-03-12T23:33:43.948Z,8.20
2019-03-12T23:34:48.365Z,8.00
2019-03-12T23:35:52.860Z,8.20
2019-03-12T23:36:57.289Z,8.00
2019-03-12T23:39:06.684Z,8.00
2019-03-12T23:41:18.696Z,8.10
2019-03-12T23:44:30.404Z,8.20
2019-03-12T23:46:39.400Z,8.20
2019-03-12T23:48:47.822Z,8.00
2019-03-12T23:49:52.149Z,8.10
2019-03-12T23:52:00.301Z,7.90
2019-03-12T23:53:04.856Z,8.20
2019-03-12T23:55:15.144Z,7.90
2019-03-12T23:56:19.628Z,8.10
2019-03-12T23:58:29.615Z,8.10
